www.hobby-wetter-faasend.de
Wetterdaten: aktuell Sonntag, 23.09.2018 14:30
Datum Zeit Temp. A. Temp. A. min Temp. A. max Feuchte A. Luftdruck Regen Wind Richtung Richtung Sonnenschein Taupunkt Windchill Windben
23.09.2018 14:30 19,7 C 19,7 C 19,8 C 92 % 1008,7 hPa 0,0 l/m 5,6 km/h (1 Bft) S-SW 198 0 min 18,4 C 19,7 C 19,3 km/h (3 Bft)
23.09.2018 14:15 19,7 C 19,6 C 19,7 C 92 % 1009,2 hPa 0,0 l/m 7,8 km/h (2 Bft) SO 144 0 min 18,4 C 19,1 C 22,5 km/h (4 Bft)
23.09.2018 14:00 19,7 C 19,6 C 19,7 C 92 % 1009,5 hPa 0,0 l/m 6,9 km/h (2 Bft) W-SW 251 0 min 18,4 C 19,5 C 24,1 km/h (4 Bft)
23.09.2018 13:45 19,6 C 19,5 C 19,6 C 93 % 1009,8 hPa 0,0 l/m 8,8 km/h (2 Bft) SO 142 0 min 18,4 C 18,6 C 32,2 km/h (5 Bft)
23.09.2018 13:30 19,5 C 19,3 C 19,5 C 93 % 1010,3 hPa 0,0 l/m 5,5 km/h (1 Bft) S-SO 161 0 min 18,3 C 19,5 C 22,5 km/h (4 Bft)
23.09.2018 13:15 19,3 C 19,1 C 19,3 C 94 % 1010,6 hPa 0,0 l/m 6,0 km/h (2 Bft) S-SO 162 0 min 18,3 C 19,3 C 25,7 km/h (4 Bft)
23.09.2018 13:00 19,1 C 19,0 C 19,1 C 93 % 1010,9 hPa 0,2 l/m 5,5 km/h (1 Bft) S-SO 159 0 min 17,9 C 19,1 C 22,5 km/h (4 Bft)
23.09.2018 12:45 19,0 C 19,0 C 19,1 C 93 % 1011,0 hPa 0,0 l/m 7,6 km/h (2 Bft) S 175 0 min 17,8 C 18,5 C 22,5 km/h (4 Bft)
23.09.2018 12:30 19,0 C 18,9 C 19,0 C 94 % 1011,1 hPa 0,2 l/m 5,1 km/h (1 Bft) S 188 0 min 18,0 C 19,0 C 24,1 km/h (4 Bft)
23.09.2018 12:16 18,9 C 18,8 C 18,9 C 94 % 1011,1 hPa 0,0 l/m 6,0 km/h (2 Bft) S-SO 150 0 min 17,9 C 18,9 C 17,7 km/h (3 Bft)
23.09.2018 12:00 18,8 C 18,6 C 18,8 C 94 % 1011,4 hPa 0,0 l/m 6,1 km/h (2 Bft) S 169 0 min 17,8 C 18,8 C 17,7 km/h (3 Bft)
23.09.2018 11:45 18,6 C 18,4 C 18,7 C 94 % 1011,6 hPa 0,0 l/m 4,6 km/h (1 Bft) S-SO 163 0 min 17,6 C 18,6 C 16,1 km/h (3 Bft)
23.09.2018 11:30 18,4 C 18,3 C 18,5 C 94 % 1011,9 hPa 0,0 l/m 6,1 km/h (2 Bft) SW 224 0 min 17,4 C 18,4 C 24,1 km/h (4 Bft)
23.09.2018 11:15 18,3 C 18,2 C 18,3 C 94 % 1012,1 hPa 0,0 l/m 6,3 km/h (2 Bft) W-SW 240 0 min 17,3 C 18,3 C 20,9 km/h (4 Bft)
23.09.2018 11:00 18,2 C 18,1 C 18,2 C 94 % 1012,2 hPa 0,0 l/m 5,7 km/h (1 Bft) S-SO 168 0 min 17,2 C 18,2 C 20,9 km/h (4 Bft)
23.09.2018 10:45 18,1 C 17,9 C 18,1 C 94 % 1012,2 hPa 0,0 l/m 5,3 km/h (1 Bft) W-SW 244 0 min 17,1 C 18,1 C 27,4 km/h (4 Bft)
23.09.2018 10:30 17,9 C 17,8 C 17,9 C 94 % 1012,3 hPa 0,0 l/m 4,9 km/h (1 Bft) S-SO 163 0 min 16,9 C 17,9 C 22,5 km/h (4 Bft)
23.09.2018 10:15 17,8 C 17,6 C 17,8 C 94 % 1012,3 hPa 0,0 l/m 6,2 km/h (2 Bft) W-SW 251 0 min 16,8 C 17,8 C 25,7 km/h (4 Bft)
23.09.2018 10:00 17,6 C 17,4 C 17,6 C 95 % 1012,4 hPa 0,0 l/m 5,7 km/h (1 Bft) SW 221 0 min 16,8 C 17,6 C 20,9 km/h (4 Bft)
23.09.2018 09:45 17,4 C 17,2 C 17,4 C 94 % 1012,5 hPa 0,0 l/m 4,8 km/h (1 Bft) SW 219 0 min 16,4 C 17,4 C 20,9 km/h (4 Bft)
23.09.2018 09:30 17,2 C 17,2 C 17,3 C 95 % 1012,5 hPa 0,0 l/m 3,3 km/h (1 Bft) SW 227 0 min 16,4 C 17,2 C 16,1 km/h (3 Bft)
23.09.2018 09:15 17,2 C 17,1 C 17,2 C 95 % 1012,5 hPa 0,0 l/m 4,2 km/h (1 Bft) S-SW 203 0 min 16,4 C 17,2 C 17,7 km/h (3 Bft)
23.09.2018 09:00 17,1 C 17,0 C 17,1 C 94 % 1012,5 hPa 0,2 l/m 4,0 km/h (1 Bft) S-SW 196 0 min 16,1 C 17,1 C 17,7 km/h (3 Bft)
23.09.2018 08:45 17,0 C 16,9 C 17,0 C 94 % 1012,6 hPa 0,0 l/m 6,5 km/h (2 Bft) S-SO 161 0 min 16,0 C 17,0 C 22,5 km/h (4 Bft)
23.09.2018 08:30 16,9 C 16,8 C 16,9 C 95 % 1012,6 hPa 0,0 l/m 6,1 km/h (2 Bft) O-SO 105 0 min 16,1 C 16,9 C 22,5 km/h (4 Bft)
23.09.2018 08:15 16,8 C 16,6 C 16,8 C 95 % 1012,8 hPa 0,0 l/m 3,3 km/h (1 Bft) W-SW 253 0 min 16,0 C 16,8 C 17,7 km/h (3 Bft)
23.09.2018 08:00 16,6 C 16,4 C 16,6 C 95 % 1012,7 hPa 0,2 l/m 3,4 km/h (1 Bft) W-SW 241 0 min 15,8 C 16,6 C 14,5 km/h (3 Bft)
23.09.2018 07:45 16,4 C 16,1 C 16,4 C 95 % 1012,6 hPa 0,0 l/m 3,7 km/h (1 Bft) S 190 0 min 15,6 C 16,4 C 14,5 km/h (3 Bft)
23.09.2018 07:30 16,1 C 15,8 C 16,1 C 95 % 1012,7 hPa 0,0 l/m 1,8 km/h (1 Bft) SW 227 0 min 15,3 C 16,1 C 11,3 km/h (2 Bft)
23.09.2018 07:15 15,8 C 15,5 C 15,8 C 95 % 1012,8 hPa 0,2 l/m 2,1 km/h (1 Bft) S-SO 166 0 min 15,0 C 15,8 C 16,1 km/h (3 Bft)
23.09.2018 07:00 15,5 C 15,3 C 15,5 C 95 % 1013,0 hPa 0,4 l/m 1,0 km/h (0 Bft) O-SO 104 0 min 14,7 C 15,5 C 8,0 km/h (2 Bft)
23.09.2018 06:45 15,3 C 15,1 C 15,3 C 95 % 1013,1 hPa 0,0 l/m 1,1 km/h (1 Bft) W-NW 283 0 min 14,5 C 15,3 C 8,0 km/h (2 Bft)
23.09.2018 06:30 15,1 C 14,7 C 15,1 C 95 % 1013,0 hPa 0,0 l/m 2,6 km/h (1 Bft) S-SO 166 0 min 14,3 C 15,1 C 16,1 km/h (3 Bft)
23.09.2018 06:15 14,7 C 14,3 C 14,7 C 95 % 1013,2 hPa 0,0 l/m 2,3 km/h (1 Bft) S-SO 165 0 min 13,9 C 14,7 C 17,7 km/h (3 Bft)
23.09.2018 06:00 14,3 C 13,9 C 14,3 C 95 % 1013,3 hPa 0,0 l/m 1,5 km/h (1 Bft) N-NW 348 0 min 13,5 C 14,3 C 9,7 km/h (2 Bft)
23.09.2018 05:45 13,9 C 13,3 C 13,9 C 95 % 1013,5 hPa 0,0 l/m 4,2 km/h (1 Bft) SW 221 0 min 13,1 C 13,9 C 17,7 km/h (3 Bft)
23.09.2018 05:30 13,3 C 12,9 C 13,3 C 95 % 1013,6 hPa 0,0 l/m 2,6 km/h (1 Bft) S 182 0 min 12,5 C 13,3 C 16,1 km/h (3 Bft)
23.09.2018 05:15 12,9 C 12,7 C 12,9 C 94 % 1013,8 hPa 0,0 l/m 0,6 km/h (0 Bft) S 185 0 min 12,0 C 12,9 C 8,0 km/h (2 Bft)
23.09.2018 05:00 12,7 C 12,4 C 12,7 C 94 % 1014,0 hPa 0,2 l/m 0,5 km/h (0 Bft) S-SO 161 0 min 11,8 C 12,7 C 6,4 km/h (2 Bft)
23.09.2018 04:45 12,4 C 12,2 C 12,4 C 94 % 1014,2 hPa 0,0 l/m 0,2 km/h (0 Bft) S-SO 161 0 min 11,5 C 12,4 C 3,2 km/h (1 Bft)
23.09.2018 04:30 12,3 C 12,1 C 12,3 C 94 % 1014,5 hPa 0,0 l/m 0,0 km/h (0 Bft) S-SO 161 0 min 11,4 C 12,3 C 0,0 km/h (0 Bft)
23.09.2018 04:15 12,1 C 11,9 C 12,1 C 94 % 1014,8 hPa 0,0 l/m 0,0 km/h (0 Bft) S-SO 161 0 min 11,2 C 12,1 C 0,0 km/h (0 Bft)
23.09.2018 04:00 11,9 C 11,8 C 11,9 C 93 % 1014,9 hPa 0,0 l/m 0,0 km/h (0 Bft) S-SO 161 0 min 10,8 C 11,9 C 1,6 km/h (1 Bft)
23.09.2018 03:45 11,8 C 11,8 C 11,8 C 93 % 1015,3 hPa 0,0 l/m 0,1 km/h (0 Bft) S-SO 161 0 min 10,7 C 11,8 C 3,2 km/h (1 Bft)
23.09.2018 03:30 11,8 C 11,7 C 11,8 C 93 % 1015,5 hPa 0,0 l/m 0,1 km/h (0 Bft) S-SO 161 0 min 10,7 C 11,8 C 6,4 km/h (2 Bft)
23.09.2018 03:15 11,7 C 11,7 C 11,7 C 93 % 1015,9 hPa 0,0 l/m 0,2 km/h (0 Bft) S-SO 163 0 min 10,6 C 11,7 C 6,4 km/h (2 Bft)
23.09.2018 03:00 11,7 C 11,6 C 11,7 C 92 % 1016,3 hPa 0,4 l/m 0,2 km/h (0 Bft) S-SO 165 0 min 10,4 C 11,7 C 6,4 km/h (2 Bft)
23.09.2018 02:45 11,6 C 11,6 C 11,6 C 92 % 1016,6 hPa 0,0 l/m 0,0 km/h (0 Bft) S-SO 161 0 min 10,3 C 11,6 C 1,6 km/h (1 Bft)
23.09.2018 02:30 11,6 C 11,6 C 11,6 C 92 % 1017,0 hPa 0,2 l/m 0,0 km/h (0 Bft) S 169 0 min 10,3 C 11,6 C 1,6 km/h (1 Bft)
23.09.2018 02:15 11,6 C 11,6 C 11,6 C 92 % 1017,2 hPa 0,0 l/m 0,0 km/h (0 Bft) S 169 0 min 10,3 C 11,6 C 1,6 km/h (1 Bft)
23.09.2018 02:00 11,6 C 11,6 C 11,6 C 92 % 1017,3 hPa 0,0 l/m 0,0 km/h (0 Bft) S 169 0 min 10,3 C 11,6 C 1,6 km/h (1 Bft)
23.09.2018 01:45 11,6 C 11,6 C 11,7 C 92 % 1017,4 hPa 0,0 l/m 0,1 km/h (0 Bft) S 169 0 min 10,3 C 11,6 C 3,2 km/h (1 Bft)
23.09.2018 01:30 11,7 C 11,7 C 11,7 C 91 % 1017,6 hPa 0,0 l/m 0,1 km/h (0 Bft) S 169 0 min 10,3 C 11,7 C 6,4 km/h (2 Bft)
23.09.2018 01:15 11,7 C 11,7 C 11,7 C 91 % 1017,6 hPa 0,0 l/m 1,2 km/h (1 Bft) S 169 0 min 10,3 C 11,7 C 9,7 km/h (2 Bft)
23.09.2018 01:00 11,7 C 11,7 C 11,8 C 91 % 1018,0 hPa 0,0 l/m 0,2 km/h (0 Bft) SW 223 0 min 10,3 C 11,7 C 4,8 km/h (1 Bft)
23.09.2018 00:45 11,8 C 11,8 C 11,8 C 91 % 1018,1 hPa 0,0 l/m 0,0 km/h (0 Bft) W-SW 254 0 min 10,4 C 11,8 C 1,6 km/h (1 Bft)
23.09.2018 00:30 11,8 C 11,8 C 11,8 C 91 % 1018,3 hPa 0,0 l/m 0,0 km/h (0 Bft) W-SW 254 0 min 10,4 C 11,8 C 1,6 km/h (1 Bft)
23.09.2018 00:15 11,8 C 11,8 C 11,8 C 90 % 1018,7 hPa 0,0 l/m 0,0 km/h (0 Bft) W-SW 254 0 min 10,2 C 11,8 C 1,6 km/h (1 Bft)
23.09.2018 00:00 11,8 C 11,8 C 11,9 C 90 % 1018,5 hPa 0,4 l/m 0,0 km/h (0 Bft) W-SW 254 0 min 10,2 C 11,8 C 1,6 km/h (1 Bft)
22.09.2018 23:45 11,9 C 11,8 C 11,9 C 89 % 1018,8 hPa 0,0 l/m 0,0 km/h (0 Bft) W-SW 254 0 min 10,1 C 11,9 C 1,6 km/h (1 Bft)
22.09.2018 23:30 11,9 C 11,9 C 11,9 C 89 % 1019,1 hPa 0,2 l/m 0,0 km/h (0 Bft) W-SW 254 0 min 10,1 C 11,9 C 1,6 km/h (1 Bft)
22.09.2018 23:15 11,9 C 11,9 C 12,0 C 89 % 1019,6 hPa 0,2 l/m 0,0 km/h (0 Bft) W-SW 254 0 min 10,1 C 11,9 C 1,6 km/h (1 Bft)
22.09.2018 23:00 12,0 C 12,0 C 12,1 C 88 % 1019,8 hPa 0,0 l/m 0,0 km/h (0 Bft) W-SW 254 0 min 10,1 C 12,0 C 0,0 km/h (0 Bft)
22.09.2018 22:45 12,1 C 12,1 C 12,1 C 88 % 1019,7 hPa 0,0 l/m 0,0 km/h (0 Bft) W-SW 254 0 min 10,2 C 12,1 C 0,0 km/h (0 Bft)
22.09.2018 22:30 12,1 C 12,1 C 12,1 C 88 % 1019,8 hPa 0,0 l/m 0,0 km/h (0 Bft) W-SW 254 0 min 10,2 C 12,1 C 0,0 km/h (0 Bft)
22.09.2018 22:15 12,1 C 12,1 C 12,3 C 87 % 1019,7 hPa 0,0 l/m 0,0 km/h (0 Bft) W-SW 254 0 min 10,0 C 12,1 C 1,6 km/h (1 Bft)
22.09.2018 22:00 12,3 C 12,3 C 12,4 C 87 % 1019,9 hPa 0,0 l/m 0,0 km/h (0 Bft) W-SW 254 0 min 10,2 C 12,3 C 1,6 km/h (1 Bft)
22.09.2018 21:45 12,4 C 12,4 C 12,4 C 86 % 1019,8 hPa 0,0 l/m 0,0 km/h (0 Bft) W-SW 254 0 min 10,1 C 12,4 C 0,0 km/h (0 Bft)
22.09.2018 21:30 12,4 C 12,4 C 12,7 C 86 % 1019,8 hPa 0,0 l/m 0,1 km/h (0 Bft) W-SW 254 0 min 10,1 C 12,4 C 3,2 km/h (1 Bft)
22.09.2018 21:15 12,7 C 12,7 C 12,9 C 85 % 1019,6 hPa 0,0 l/m 0,1 km/h (0 Bft) W-SW 254 0 min 10,2 C 12,7 C 3,2 km/h (1 Bft)
22.09.2018 21:00 12,9 C 12,9 C 13,2 C 83 % 1019,7 hPa 0,0 l/m 0,0 km/h (0 Bft) W-SW 254 0 min 10,1 C 12,9 C 1,6 km/h (1 Bft)
22.09.2018 20:45 13,2 C 13,2 C 13,4 C 83 % 1019,7 hPa 0,0 l/m 0,0 km/h (0 Bft) W-SW 254 0 min 10,4 C 13,2 C 1,6 km/h (1 Bft)
22.09.2018 20:30 13,4 C 13,4 C 13,9 C 82 % 1019,7 hPa 0,0 l/m 0,1 km/h (0 Bft) W-SW 254 0 min 10,4 C 13,4 C 3,2 km/h (1 Bft)
22.09.2018 20:15 13,9 C 13,9 C 14,5 C 80 % 1019,6 hPa 0,0 l/m 0,0 km/h (0 Bft) W-SW 254 0 min 10,5 C 13,9 C 1,6 km/h (1 Bft)
22.09.2018 20:00 14,5 C 14,5 C 15,1 C 77 % 1019,8 hPa 0,0 l/m 0,1 km/h (0 Bft) W-SW 254 0 min 10,5 C 14,5 C 1,6 km/h (1 Bft)
22.09.2018 19:45 15,1 C 15,1 C 15,7 C 74 % 1019,9 hPa 0,2 l/m 0,0 km/h (0 Bft) W-SW 254 0 min 10,5 C 15,1 C 0,0 km/h (0 Bft)
22.09.2018 19:30 15,7 C 15,7 C 16,3 C 72 % 1019,8 hPa 0,0 l/m 0,0 km/h (0 Bft) W-SW 254 0 min 10,7 C 15,7 C 0,0 km/h (0 Bft)
22.09.2018 19:15 16,3 C 16,3 C 16,5 C 66 % 1019,7 hPa 0,0 l/m 0,0 km/h (0 Bft) W-SW 254 0 min 9,9 C 16,3 C 0,0 km/h (0 Bft)
22.09.2018 19:00 16,5 C 16,5 C 16,7 C 60 % 1019,9 hPa 0,0 l/m 0,0 km/h (0 Bft) W-SW 254 0 min 8,7 C 16,5 C 0,0 km/h (0 Bft)
22.09.2018 18:45 16,7 C 16,7 C 16,9 C 56 % 1020,2 hPa 0,0 l/m 0,0 km/h (0 Bft) W-SW 254 0 min 7,9 C 16,7 C 0,0 km/h (0 Bft)
22.09.2018 18:30 16,9 C 16,8 C 17,0 C 55 % 1020,1 hPa 0,0 l/m 0,0 km/h (0 Bft) W-SW 254 0 min 7,8 C 16,9 C 1,6 km/h (1 Bft)
22.09.2018 18:15 17,0 C 17,0 C 17,1 C 54 % 1020,2 hPa 0,0 l/m 0,1 km/h (0 Bft) W-SW 254 0 min 7,6 C 17,0 C 3,2 km/h (1 Bft)
22.09.2018 18:00 17,1 C 17,1 C 17,1 C 53 % 1020,1 hPa 0,0 l/m 0,2 km/h (0 Bft) W-SW 254 0 min 7,4 C 17,1 C 4,8 km/h (1 Bft)
22.09.2018 17:45 17,1 C 17,1 C 17,1 C 52 % 1020,2 hPa 0,0 l/m 0,1 km/h (0 Bft) W 269 0 min 7,2 C 17,1 C 4,8 km/h (1 Bft)
22.09.2018 17:30 17,1 C 17,1 C 17,2 C 50 % 1020,4 hPa 0,0 l/m 1,3 km/h (1 Bft) NW 309 0 min 6,6 C 17,1 C 11,3 km/h (2 Bft)
22.09.2018 17:15 17,2 C 17,2 C 17,3 C 50 % 1020,5 hPa 0,0 l/m 0,4 km/h (0 Bft) W 277 0 min 6,7 C 17,2 C 9,7 km/h (2 Bft)
22.09.2018 17:00 17,3 C 17,2 C 17,3 C 51 % 1020,6 hPa 0,0 l/m 0,3 km/h (0 Bft) S-SW 200 0 min 7,1 C 17,3 C 9,7 km/h (2 Bft)
22.09.2018 16:45 17,2 C 17,2 C 17,3 C 52 % 1020,9 hPa 0,0 l/m 2,3 km/h (1 Bft) W 281 0 min 7,3 C 17,2 C 12,9 km/h (3 Bft)
22.09.2018 16:30 17,3 C 17,3 C 17,5 C 53 % 1021,0 hPa 0,0 l/m 1,8 km/h (1 Bft) S 184 0 min 7,6 C 17,3 C 12,9 km/h (3 Bft)
22.09.2018 16:15 17,5 C 17,3 C 17,5 C 52 % 1021,1 hPa 0,0 l/m 2,3 km/h (1 Bft) W-SW 258 0 min 7,5 C 17,5 C 14,5 km/h (3 Bft)
22.09.2018 16:00 17,3 C 17,3 C 17,4 C 52 % 1021,3 hPa 0,0 l/m 3,2 km/h (1 Bft) W 260 0 min 7,3 C 17,3 C 14,5 km/h (3 Bft)
22.09.2018 15:45 17,4 C 17,3 C 17,6 C 52 % 1021,5 hPa 0,0 l/m 2,3 km/h (1 Bft) SW 223 0 min 7,4 C 17,4 C 11,3 km/h (2 Bft)
22.09.2018 15:30 17,6 C 17,5 C 17,7 C 52 % 1021,7 hPa 0,0 l/m 2,8 km/h (1 Bft) W 261 0 min 7,6 C 17,6 C 14,5 km/h (3 Bft)
22.09.2018 15:15 17,6 C 17,5 C 17,7 C 52 % 1021,5 hPa 0,0 l/m 3,9 km/h (1 Bft) NW 305 0 min 7,6 C 17,6 C 17,7 km/h (3 Bft)
22.09.2018 15:00 17,7 C 17,6 C 17,8 C 52 % 1022,0 hPa 0,0 l/m 4,2 km/h (1 Bft) W-NW 288 0 min 7,7 C 17,7 C 19,3 km/h (3 Bft)
_ Min-Zeit 01:45 01:45 02:00 17:15 14:30 - 18:30 - - - 17:30 01:45 18:45
Minimum _ 11,6 C 11,6 C 11,6 C 50 % 1008,7 hPa - 0,0 km/h (0 Bft) - - - 6,6 C 11,6 C 0,0 km/h (0 Bft)
_ Max-Zeit 14:30 14:30 14:30 05:30 15:00 00:00 13:45 - - 15:00 13:45 14:30 13:45
Maximum _ 19,8 C 19,7 C 19,8 C 95 % 1022,0 hPa 0,4 l/m 8,8 km/h
SO (2 Bft)
- - 0 min 18,4 C 19,7 C 32,2 km/h
W (5 Bft)
Durchschnitt _ 15,4 C 15,3 C 15,5 C 82 % 1016,5 hPa #3,2 l/m 2,3 km/h (1 Bft) S-SO - #0 min. 12,0 C 15,4 C 10,9 km/h (2 Bft)